sensor_id;sensor_type;location;lat;lon;timestamp;P1;durP1;ratioP1;P2;durP2;ratioP2
22851;SDS011;11592;45.460;9.240;2024-01-06T00:01:33;28.20;;;18.23;;
22851;SDS011;11592;45.460;9.240;2024-01-06T00:04:01;29.10;;;18.65;;
22851;SDS011;11592;45.460;9.240;2024-01-06T00:06:28;28.95;;;18.83;;
22851;SDS011;11592;45.460;9.240;2024-01-06T00:08:55;30.75;;;19.65;;
22851;SDS011;11592;45.460;9.240;2024-01-06T00:11:22;31.08;;;19.30;;
22851;SDS011;11592;45.460;9.240;2024-01-06T00:13:50;30.75;;;18.70;;
22851;SDS011;11592;45.460;9.240;2024-01-06T00:16:17;27.88;;;17.95;;
22851;SDS011;11592;45.460;9.240;2024-01-06T00:18:45;25.67;;;16.95;;
22851;SDS011;11592;45.460;9.240;2024-01-06T00:21:13;25.13;;;16.92;;
22851;SDS011;11592;45.460;9.240;2024-01-06T00:23:40;25.80;;;16.92;;
22851;SDS011;11592;45.460;9.240;2024-01-06T00:26:07;23.92;;;16.13;;
22851;SDS011;11592;45.460;9.240;2024-01-06T00:28:35;21.85;;;15.35;;
22851;SDS011;11592;45.460;9.240;2024-01-06T00:31:02;22.92;;;15.52;;
22851;SDS011;11592;45.460;9.240;2024-01-06T00:33:30;23.70;;;15.02;;
22851;SDS011;11592;45.460;9.240;2024-01-06T00:35:57;23.80;;;15.07;;
22851;SDS011;11592;45.460;9.240;2024-01-06T00:38:24;21.35;;;14.68;;
22851;SDS011;11592;45.460;9.240;2024-01-06T00:40:52;21.45;;;14.10;;
22851;SDS011;11592;45.460;9.240;2024-01-06T00:43:19;20.40;;;13.68;;
22851;SDS011;11592;45.460;9.240;2024-01-06T00:45:46;20.98;;;13.43;;
22851;SDS011;11592;45.460;9.240;2024-01-06T00:48:13;19.80;;;12.93;;
22851;SDS011;11592;45.460;9.240;2024-01-06T00:50:41;17.77;;;12.25;;
22851;SDS011;11592;45.460;9.240;2024-01-06T00:53:08;18.08;;;11.60;;
22851;SDS011;11592;45.460;9.240;2024-01-06T00:55:35;16.52;;;10.77;;
22851;SDS011;11592;45.460;9.240;2024-01-06T00:58:03;14.82;;;10.45;;
22851;SDS011;11592;45.460;9.240;2024-01-06T01:00:30;15.75;;;10.15;;
22851;SDS011;11592;45.460;9.240;2024-01-06T01:02:57;14.05;;;9.55;;
22851;SDS011;11592;45.460;9.240;2024-01-06T01:05:25;15.70;;;9.63;;
22851;SDS011;11592;45.460;9.240;2024-01-06T01:07:52;13.63;;;8.82;;
22851;SDS011;11592;45.460;9.240;2024-01-06T01:10:19;13.30;;;8.68;;
22851;SDS011;11592;45.460;9.240;2024-01-06T01:12:46;13.25;;;8.30;;
22851;SDS011;11592;45.460;9.240;2024-01-06T01:15:13;11.20;;;7.82;;
22851;SDS011;11592;45.460;9.240;2024-01-06T01:17:40;15.02;;;8.98;;
22851;SDS011;11592;45.460;9.240;2024-01-06T01:20:08;11.10;;;7.82;;
22851;SDS011;11592;45.460;9.240;2024-01-06T01:22:34;10.68;;;7.07;;
22851;SDS011;11592;45.460;9.240;2024-01-06T01:25:02;10.82;;;6.47;;
22851;SDS011;11592;45.460;9.240;2024-01-06T01:27:33;9.32;;;5.97;;
22851;SDS011;11592;45.460;9.240;2024-01-06T01:30:01;9.68;;;6.03;;
22851;SDS011;11592;45.460;9.240;2024-01-06T01:32:28;8.00;;;5.50;;
22851;SDS011;11592;45.460;9.240;2024-01-06T01:34:55;7.22;;;4.47;;
22851;SDS011;11592;45.460;9.240;2024-01-06T01:37:23;9.07;;;4.85;;
22851;SDS011;11592;45.460;9.240;2024-01-06T01:39:50;7.93;;;4.93;;
22851;SDS011;11592;45.460;9.240;2024-01-06T01:42:17;8.35;;;5.05;;
22851;SDS011;11592;45.460;9.240;2024-01-06T01:44:44;8.77;;;4.90;;
22851;SDS011;11592;45.460;9.240;2024-01-06T01:47:12;8.25;;;4.70;;
22851;SDS011;11592;45.460;9.240;2024-01-06T01:49:41;7.75;;;4.43;;
22851;SDS011;11592;45.460;9.240;2024-01-06T01:52:08;7.68;;;4.82;;
22851;SDS011;11592;45.460;9.240;2024-01-06T01:54:35;7.60;;;4.93;;
22851;SDS011;11592;45.460;9.240;2024-01-06T01:57:03;6.90;;;4.32;;
22851;SDS011;11592;45.460;9.240;2024-01-06T01:59:30;8.13;;;4.97;;
22851;SDS011;11592;45.460;9.240;2024-01-06T02:01:57;9.32;;;4.78;;
22851;SDS011;11592;45.460;9.240;2024-01-06T02:04:24;7.88;;;4.63;;
22851;SDS011;11592;45.460;9.240;2024-01-06T02:06:52;8.13;;;4.72;;
22851;SDS011;11592;45.460;9.240;2024-01-06T02:09:19;8.88;;;4.38;;
22851;SDS011;11592;45.460;9.240;2024-01-06T02:14:15;6.68;;;4.28;;
22851;SDS011;11592;45.460;9.240;2024-01-06T02:16:43;7.00;;;4.43;;
22851;SDS011;11592;45.460;9.240;2024-01-06T02:19:10;7.72;;;4.15;;
22851;SDS011;11592;45.460;9.240;2024-01-06T02:21:41;7.40;;;4.18;;
22851;SDS011;11592;45.460;9.240;2024-01-06T02:24:09;8.18;;;4.72;;
22851;SDS011;11592;45.460;9.240;2024-01-06T02:26:37;7.47;;;4.20;;
22851;SDS011;11592;45.460;9.240;2024-01-06T02:29:04;7.82;;;4.53;;
22851;SDS011;11592;45.460;9.240;2024-01-06T02:31:31;8.32;;;4.55;;
22851;SDS011;11592;45.460;9.240;2024-01-06T02:33:58;6.85;;;4.32;;
22851;SDS011;11592;45.460;9.240;2024-01-06T02:36:26;7.40;;;4.10;;
22851;SDS011;11592;45.460;9.240;2024-01-06T02:38:53;7.20;;;4.53;;
22851;SDS011;11592;45.460;9.240;2024-01-06T02:41:20;6.65;;;4.13;;
22851;SDS011;11592;45.460;9.240;2024-01-06T02:43:48;8.32;;;4.75;;
22851;SDS011;11592;45.460;9.240;2024-01-06T02:46:15;10.52;;;5.35;;
22851;SDS011;11592;45.460;9.240;2024-01-06T02:48:42;7.97;;;4.97;;
22851;SDS011;11592;45.460;9.240;2024-01-06T02:51:10;7.85;;;4.90;;
22851;SDS011;11592;45.460;9.240;2024-01-06T02:53:39;10.90;;;5.07;;
22851;SDS011;11592;45.460;9.240;2024-01-06T02:56:09;9.05;;;4.60;;
22851;SDS011;11592;45.460;9.240;2024-01-06T02:58:37;7.40;;;4.57;;
22851;SDS011;11592;45.460;9.240;2024-01-06T03:01:05;8.30;;;4.32;;
22851;SDS011;11592;45.460;9.240;2024-01-06T03:03:33;8.73;;;4.70;;
22851;SDS011;11592;45.460;9.240;2024-01-06T03:06:00;7.72;;;4.53;;
22851;SDS011;11592;45.460;9.240;2024-01-06T03:08:27;8.50;;;4.57;;
22851;SDS011;11592;45.460;9.240;2024-01-06T03:10:55;6.30;;;4.32;;
22851;SDS011;11592;45.460;9.240;2024-01-06T03:13:22;6.88;;;4.38;;
22851;SDS011;11592;45.460;9.240;2024-01-06T03:15:49;7.00;;;4.53;;
22851;SDS011;11592;45.460;9.240;2024-01-06T03:18:16;6.72;;;4.05;;
22851;SDS011;11592;45.460;9.240;2024-01-06T03:20:44;9.02;;;5.22;;
22851;SDS011;11592;45.460;9.240;2024-01-06T03:23:11;8.20;;;4.72;;
22851;SDS011;11592;45.460;9.240;2024-01-06T03:25:38;9.23;;;4.75;;
22851;SDS011;11592;45.460;9.240;2024-01-06T03:28:06;8.65;;;4.60;;
22851;SDS011;11592;45.460;9.240;2024-01-06T03:30:33;9.90;;;5.75;;
22851;SDS011;11592;45.460;9.240;2024-01-06T03:33:00;8.68;;;5.90;;
22851;SDS011;11592;45.460;9.240;2024-01-06T03:35:28;9.55;;;6.07;;
22851;SDS011;11592;45.460;9.240;2024-01-06T03:37:55;11.05;;;7.05;;
22851;SDS011;11592;45.460;9.240;2024-01-06T03:40:22;10.40;;;5.72;;
22851;SDS011;11592;45.460;9.240;2024-01-06T03:42:49;10.18;;;6.68;;
22851;SDS011;11592;45.460;9.240;2024-01-06T03:45:17;10.45;;;6.70;;
22851;SDS011;11592;45.460;9.240;2024-01-06T03:47:44;12.73;;;7.47;;
22851;SDS011;11592;45.460;9.240;2024-01-06T03:50:11;11.90;;;7.55;;
22851;SDS011;11592;45.460;9.240;2024-01-06T03:52:39;14.90;;;8.27;;
22851;SDS011;11592;45.460;9.240;2024-01-06T03:55:06;12.48;;;8.43;;
22851;SDS011;11592;45.460;9.240;2024-01-06T03:57:33;15.50;;;9.65;;
22851;SDS011;11592;45.460;9.240;2024-01-06T04:00:01;13.18;;;9.10;;
22851;SDS011;11592;45.460;9.240;2024-01-06T04:02:28;14.18;;;10.15;;
22851;SDS011;11592;45.460;9.240;2024-01-06T04:04:55;15.65;;;10.82;;
22851;SDS011;11592;45.460;9.240;2024-01-06T04:07:22;20.45;;;12.98;;
22851;SDS011;11592;45.460;9.240;2024-01-06T04:09:49;19.42;;;12.65;;
22851;SDS011;11592;45.460;9.240;2024-01-06T04:12:17;20.65;;;13.65;;
22851;SDS011;11592;45.460;9.240;2024-01-06T04:14:44;21.30;;;13.50;;
22851;SDS011;11592;45.460;9.240;2024-01-06T04:17:11;20.48;;;13.07;;
22851;SDS011;11592;45.460;9.240;2024-01-06T04:19:39;21.48;;;13.23;;
22851;SDS011;11592;45.460;9.240;2024-01-06T04:22:06;20.98;;;12.77;;
22851;SDS011;11592;45.460;9.240;2024-01-06T04:24:33;23.02;;;14.57;;
22851;SDS011;11592;45.460;9.240;2024-01-06T04:29:30;22.58;;;13.65;;
22851;SDS011;11592;45.460;9.240;2024-01-06T04:31:57;24.63;;;14.45;;
22851;SDS011;11592;45.460;9.240;2024-01-06T04:34:25;24.60;;;14.82;;
22851;SDS011;11592;45.460;9.240;2024-01-06T04:36:52;25.92;;;15.60;;
22851;SDS011;11592;45.460;9.240;2024-01-06T04:39:20;23.85;;;14.55;;
22851;SDS011;11592;45.460;9.240;2024-01-06T04:41:47;24.10;;;15.35;;
22851;SDS011;11592;45.460;9.240;2024-01-06T04:44:14;27.65;;;16.35;;
22851;SDS011;11592;45.460;9.240;2024-01-06T04:46:41;26.00;;;15.57;;
22851;SDS011;11592;45.460;9.240;2024-01-06T04:49:09;25.45;;;15.73;;
22851;SDS011;11592;45.460;9.240;2024-01-06T04:51:37;27.65;;;16.48;;
22851;SDS011;11592;45.460;9.240;2024-01-06T04:54:03;25.00;;;16.17;;
22851;SDS011;11592;45.460;9.240;2024-01-06T04:56:31;28.75;;;17.20;;
22851;SDS011;11592;45.460;9.240;2024-01-06T04:59:02;27.88;;;16.65;;
22851;SDS011;11592;45.460;9.240;2024-01-06T05:01:29;30.80;;;18.20;;
22851;SDS011;11592;45.460;9.240;2024-01-06T05:03:56;31.77;;;18.52;;
22851;SDS011;11592;45.460;9.240;2024-01-06T05:06:23;32.00;;;18.13;;
22851;SDS011;11592;45.460;9.240;2024-01-06T05:08:50;32.10;;;18.30;;
22851;SDS011;11592;45.460;9.240;2024-01-06T05:11:18;32.03;;;18.30;;
22851;SDS011;11592;45.460;9.240;2024-01-06T05:13:45;29.35;;;17.70;;
22851;SDS011;11592;45.460;9.240;2024-01-06T05:16:12;28.95;;;17.38;;
22851;SDS011;11592;45.460;9.240;2024-01-06T05:18:39;27.83;;;17.08;;
22851;SDS011;11592;45.460;9.240;2024-01-06T05:21:07;27.40;;;16.85;;
22851;SDS011;11592;45.460;9.240;2024-01-06T05:23:34;29.02;;;17.17;;
22851;SDS011;11592;45.460;9.240;2024-01-06T05:26:02;29.25;;;16.67;;
22851;SDS011;11592;45.460;9.240;2024-01-06T05:28:29;32.65;;;17.83;;
22851;SDS011;11592;45.460;9.240;2024-01-06T05:30:57;33.50;;;17.38;;
22851;SDS011;11592;45.460;9.240;2024-01-06T05:33:24;27.98;;;17.40;;
22851;SDS011;11592;45.460;9.240;2024-01-06T05:35:51;33.40;;;20.42;;
22851;SDS011;11592;45.460;9.240;2024-01-06T05:38:19;33.50;;;21.45;;
22851;SDS011;11592;45.460;9.240;2024-01-06T05:40:46;39.97;;;23.30;;
22851;SDS011;11592;45.460;9.240;2024-01-06T05:43:13;38.58;;;23.25;;
22851;SDS011;11592;45.460;9.240;2024-01-06T05:45:40;40.53;;;22.75;;
22851;SDS011;11592;45.460;9.240;2024-01-06T05:48:08;41.75;;;24.05;;
22851;SDS011;11592;45.460;9.240;2024-01-06T05:50:39;43.40;;;25.35;;
22851;SDS011;11592;45.460;9.240;2024-01-06T05:53:07;41.08;;;25.60;;
22851;SDS011;11592;45.460;9.240;2024-01-06T05:55:35;41.13;;;24.52;;
22851;SDS011;11592;45.460;9.240;2024-01-06T05:58:02;48.65;;;27.20;;
22851;SDS011;11592;45.460;9.240;2024-01-06T06:00:29;46.63;;;25.65;;
22851;SDS011;11592;45.460;9.240;2024-01-06T06:02:58;46.72;;;27.63;;
22851;SDS011;11592;45.460;9.240;2024-01-06T06:05:25;45.05;;;26.23;;
22851;SDS011;11592;45.460;9.240;2024-01-06T06:07:52;47.25;;;27.13;;
22851;SDS011;11592;45.460;9.240;2024-01-06T06:10:20;46.58;;;26.20;;
22851;SDS011;11592;45.460;9.240;2024-01-06T06:12:48;46.63;;;26.80;;
22851;SDS011;11592;45.460;9.240;2024-01-06T06:15:16;47.35;;;27.17;;
22851;SDS011;11592;45.460;9.240;2024-01-06T06:17:43;50.35;;;25.88;;
22851;SDS011;11592;45.460;9.240;2024-01-06T06:20:11;46.67;;;26.00;;
22851;SDS011;11592;45.460;9.240;2024-01-06T06:22:38;44.60;;;25.65;;
22851;SDS011;11592;45.460;9.240;2024-01-06T06:25:05;44.25;;;25.40;;
22851;SDS011;11592;45.460;9.240;2024-01-06T06:27:33;44.05;;;25.50;;
22851;SDS011;11592;45.460;9.240;2024-01-06T06:30:01;40.38;;;23.02;;
22851;SDS011;11592;45.460;9.240;2024-01-06T06:32:29;39.08;;;23.48;;
22851;SDS011;11592;45.460;9.240;2024-01-06T06:34:57;39.58;;;23.98;;
22851;SDS011;11592;45.460;9.240;2024-01-06T06:37:24;34.80;;;21.27;;
22851;SDS011;11592;45.460;9.240;2024-01-06T06:39:51;30.98;;;20.85;;
22851;SDS011;11592;45.460;9.240;2024-01-06T06:42:19;33.55;;;20.77;;
22851;SDS011;11592;45.460;9.240;2024-01-06T06:44:46;36.33;;;21.58;;
22851;SDS011;11592;45.460;9.240;2024-01-06T06:47:13;34.50;;;21.23;;
22851;SDS011;11592;45.460;9.240;2024-01-06T06:49:41;36.08;;;20.70;;
22851;SDS011;11592;45.460;9.240;2024-01-06T06:52:08;29.95;;;19.75;;
22851;SDS011;11592;45.460;9.240;2024-01-06T06:54:35;31.90;;;19.13;;
22851;SDS011;11592;45.460;9.240;2024-01-06T06:57:02;28.10;;;17.55;;
22851;SDS011;11592;45.460;9.240;2024-01-06T06:59:29;27.30;;;18.15;;
22851;SDS011;11592;45.460;9.240;2024-01-06T07:01:57;25.17;;;16.08;;
22851;SDS011;11592;45.460;9.240;2024-01-06T07:04:24;25.98;;;16.90;;
22851;SDS011;11592;45.460;9.240;2024-01-06T07:06:52;27.67;;;17.77;;
22851;SDS011;11592;45.460;9.240;2024-01-06T07:09:19;27.55;;;17.25;;
22851;SDS011;11592;45.460;9.240;2024-01-06T07:11:50;25.92;;;16.58;;
22851;SDS011;11592;45.460;9.240;2024-01-06T07:14:17;27.13;;;18.50;;
22851;SDS011;11592;45.460;9.240;2024-01-06T07:16:44;29.88;;;18.17;;
22851;SDS011;11592;45.460;9.240;2024-01-06T07:19:12;30.83;;;19.45;;
22851;SDS011;11592;45.460;9.240;2024-01-06T07:21:40;29.13;;;18.38;;
22851;SDS011;11592;45.460;9.240;2024-01-06T07:24:07;37.35;;;21.15;;
22851;SDS011;11592;45.460;9.240;2024-01-06T07:26:34;32.88;;;20.40;;
22851;SDS011;11592;45.460;9.240;2024-01-06T07:29:02;34.40;;;19.95;;
22851;SDS011;11592;45.460;9.240;2024-01-06T07:31:30;35.88;;;21.45;;
22851;SDS011;11592;45.460;9.240;2024-01-06T07:33:57;35.85;;;21.52;;
22851;SDS011;11592;45.460;9.240;2024-01-06T07:36:25;36.40;;;22.25;;
22851;SDS011;11592;45.460;9.240;2024-01-06T07:38:52;37.10;;;21.90;;
22851;SDS011;11592;45.460;9.240;2024-01-06T07:41:21;36.67;;;22.85;;
22851;SDS011;11592;45.460;9.240;2024-01-06T07:43:48;37.60;;;22.23;;
22851;SDS011;11592;45.460;9.240;2024-01-06T07:46:15;42.33;;;22.40;;
22851;SDS011;11592;45.460;9.240;2024-01-06T07:48:45;40.72;;;24.00;;
22851;SDS011;11592;45.460;9.240;2024-01-06T07:51:13;39.00;;;23.35;;
22851;SDS011;11592;45.460;9.240;2024-01-06T07:53:40;38.72;;;21.52;;
22851;SDS011;11592;45.460;9.240;2024-01-06T07:56:08;37.90;;;22.23;;
22851;SDS011;11592;45.460;9.240;2024-01-06T07:58:36;33.53;;;21.30;;
22851;SDS011;11592;45.460;9.240;2024-01-06T08:01:03;32.80;;;19.80;;
22851;SDS011;11592;45.460;9.240;2024-01-06T08:03:31;34.78;;;20.13;;
22851;SDS011;11592;45.460;9.240;2024-01-06T08:05:58;36.38;;;20.85;;
22851;SDS011;11592;45.460;9.240;2024-01-06T08:08:26;35.63;;;20.70;;
22851;SDS011;11592;45.460;9.240;2024-01-06T08:10:53;35.03;;;21.25;;
22851;SDS011;11592;45.460;9.240;2024-01-06T08:13:20;36.35;;;22.33;;
22851;SDS011;11592;45.460;9.240;2024-01-06T08:15:48;34.63;;;20.92;;
22851;SDS011;11592;45.460;9.240;2024-01-06T08:18:15;38.88;;;21.20;;
22851;SDS011;11592;45.460;9.240;2024-01-06T08:20:42;34.47;;;20.15;;
22851;SDS011;11592;45.460;9.240;2024-01-06T08:23:10;34.75;;;21.23;;
22851;SDS011;11592;45.460;9.240;2024-01-06T08:25:37;35.58;;;21.58;;
22851;SDS011;11592;45.460;9.240;2024-01-06T08:28:04;32.08;;;20.55;;
22851;SDS011;11592;45.460;9.240;2024-01-06T08:30:32;38.53;;;21.98;;
22851;SDS011;11592;45.460;9.240;2024-01-06T08:32:59;38.40;;;22.02;;
22851;SDS011;11592;45.460;9.240;2024-01-06T08:35:28;34.55;;;21.08;;
22851;SDS011;11592;45.460;9.240;2024-01-06T08:37:55;37.50;;;21.60;;
22851;SDS011;11592;45.460;9.240;2024-01-06T08:40:22;38.97;;;22.85;;
22851;SDS011;11592;45.460;9.240;2024-01-06T08:42:49;36.63;;;21.88;;
22851;SDS011;11592;45.460;9.240;2024-01-06T08:45:16;38.25;;;22.23;;
22851;SDS011;11592;45.460;9.240;2024-01-06T08:47:44;39.65;;;22.92;;
22851;SDS011;11592;45.460;9.240;2024-01-06T08:50:11;38.60;;;23.42;;
22851;SDS011;11592;45.460;9.240;2024-01-06T08:52:38;40.03;;;21.92;;
22851;SDS011;11592;45.460;9.240;2024-01-06T08:55:06;38.53;;;22.92;;
22851;SDS011;11592;45.460;9.240;2024-01-06T08:57:33;35.88;;;20.90;;
22851;SDS011;11592;45.460;9.240;2024-01-06T09:00:00;39.65;;;22.83;;
22851;SDS011;11592;45.460;9.240;2024-01-06T09:02:28;43.95;;;23.33;;
22851;SDS011;11592;45.460;9.240;2024-01-06T09:04:55;42.17;;;23.23;;
22851;SDS011;11592;45.460;9.240;2024-01-06T09:07:22;43.70;;;23.33;;
22851;SDS011;11592;45.460;9.240;2024-01-06T09:09:49;42.00;;;23.35;;
22851;SDS011;11592;45.460;9.240;2024-01-06T09:12:17;42.75;;;23.80;;
22851;SDS011;11592;45.460;9.240;2024-01-06T09:14:45;44.08;;;24.13;;
22851;SDS011;11592;45.460;9.240;2024-01-06T09:17:12;42.97;;;23.95;;
22851;SDS011;11592;45.460;9.240;2024-01-06T09:19:39;42.10;;;23.55;;
22851;SDS011;11592;45.460;9.240;2024-01-06T09:22:06;39.63;;;22.10;;
22851;SDS011;11592;45.460;9.240;2024-01-06T09:24:34;43.92;;;23.67;;
22851;SDS011;11592;45.460;9.240;2024-01-06T09:27:01;47.53;;;25.13;;
22851;SDS011;11592;45.460;9.240;2024-01-06T09:29:29;52.38;;;25.70;;
22851;SDS011;11592;45.460;9.240;2024-01-06T09:31:56;45.05;;;24.13;;
22851;SDS011;11592;45.460;9.240;2024-01-06T09:34:24;47.53;;;26.40;;
22851;SDS011;11592;45.460;9.240;2024-01-06T09:36:51;47.05;;;24.55;;
22851;SDS011;11592;45.460;9.240;2024-01-06T09:39:18;50.22;;;25.30;;
22851;SDS011;11592;45.460;9.240;2024-01-06T09:41:45;50.83;;;26.70;;
22851;SDS011;11592;45.460;9.240;2024-01-06T09:44:12;49.05;;;25.25;;
22851;SDS011;11592;45.460;9.240;2024-01-06T09:46:42;45.17;;;24.95;;
22851;SDS011;11592;45.460;9.240;2024-01-06T09:49:10;41.13;;;23.38;;
22851;SDS011;11592;45.460;9.240;2024-01-06T09:51:39;38.95;;;22.83;;
22851;SDS011;11592;45.460;9.240;2024-01-06T09:54:08;41.63;;;21.52;;
22851;SDS011;11592;45.460;9.240;2024-01-06T09:56:35;37.38;;;21.85;;
22851;SDS011;11592;45.460;9.240;2024-01-06T09:59:03;36.53;;;22.13;;
22851;SDS011;11592;45.460;9.240;2024-01-06T10:01:30;41.08;;;22.52;;
22851;SDS011;11592;45.460;9.240;2024-01-06T10:03:57;37.58;;;22.58;;
22851;SDS011;11592;45.460;9.240;2024-01-06T10:06:24;36.20;;;21.42;;
22851;SDS011;11592;45.460;9.240;2024-01-06T10:08:52;32.85;;;20.38;;
22851;SDS011;11592;45.460;9.240;2024-01-06T10:11:20;35.55;;;21.10;;
22851;SDS011;11592;45.460;9.240;2024-01-06T10:13:49;32.92;;;20.42;;
22851;SDS011;11592;45.460;9.240;2024-01-06T10:16:20;37.25;;;22.02;;
22851;SDS011;11592;45.460;9.240;2024-01-06T10:18:48;42.75;;;23.00;;
22851;SDS011;11592;45.460;9.240;2024-01-06T10:21:20;40.05;;;22.20;;
22851;SDS011;11592;45.460;9.240;2024-01-06T10:23:48;50.70;;;24.42;;
22851;SDS011;11592;45.460;9.240;2024-01-06T10:26:17;40.75;;;22.10;;
22851;SDS011;11592;45.460;9.240;2024-01-06T10:28:44;39.53;;;23.13;;
22851;SDS011;11592;45.460;9.240;2024-01-06T10:31:11;42.20;;;24.38;;
22851;SDS011;11592;45.460;9.240;2024-01-06T10:33:40;43.97;;;24.45;;
22851;SDS011;11592;45.460;9.240;2024-01-06T10:36:07;37.50;;;22.58;;
22851;SDS011;11592;45.460;9.240;2024-01-06T10:38:35;36.35;;;22.75;;
22851;SDS011;11592;45.460;9.240;2024-01-06T10:41:03;37.92;;;22.42;;
22851;SDS011;11592;45.460;9.240;2024-01-06T10:43:34;38.38;;;20.40;;
22851;SDS011;11592;45.460;9.240;2024-01-06T10:46:03;39.78;;;22.08;;
22851;SDS011;11592;45.460;9.240;2024-01-06T10:48:31;41.55;;;23.15;;
22851;SDS011;11592;45.460;9.240;2024-01-06T10:51:02;39.08;;;21.63;;
22851;SDS011;11592;45.460;9.240;2024-01-06T10:53:34;41.15;;;23.42;;
22851;SDS011;11592;45.460;9.240;2024-01-06T10:56:06;40.25;;;23.08;;
22851;SDS011;11592;45.460;9.240;2024-01-06T10:58:45;38.65;;;21.55;;
22851;SDS011;11592;45.460;9.240;2024-01-06T11:01:15;36.88;;;21.05;;
22851;SDS011;11592;45.460;9.240;2024-01-06T11:03:52;39.42;;;22.65;;
22851;SDS011;11592;45.460;9.240;2024-01-06T11:06:20;38.92;;;23.08;;
22851;SDS011;11592;45.460;9.240;2024-01-06T11:11:16;39.33;;;22.83;;
22851;SDS011;11592;45.460;9.240;2024-01-06T11:13:47;42.35;;;23.85;;
22851;SDS011;11592;45.460;9.240;2024-01-06T11:16:33;38.95;;;22.70;;
22851;SDS011;11592;45.460;9.240;2024-01-06T11:19:00;36.13;;;22.75;;
22851;SDS011;11592;45.460;9.240;2024-01-06T11:21:34;43.95;;;24.98;;
22851;SDS011;11592;45.460;9.240;2024-01-06T11:24:14;44.90;;;25.33;;
22851;SDS011;11592;45.460;9.240;2024-01-06T11:26:56;45.05;;;24.15;;
22851;SDS011;11592;45.460;9.240;2024-01-06T11:29:23;43.53;;;24.23;;
22851;SDS011;11592;45.460;9.240;2024-01-06T11:34:47;47.25;;;24.17;;
22851;SDS011;11592;45.460;9.240;2024-01-06T11:37:23;49.33;;;26.88;;
22851;SDS011;11592;45.460;9.240;2024-01-06T11:39:50;50.92;;;26.88;;
22851;SDS011;11592;45.460;9.240;2024-01-06T11:42:17;51.80;;;27.52;;
22851;SDS011;11592;45.460;9.240;2024-01-06T11:44:49;46.67;;;26.38;;
22851;SDS011;11592;45.460;9.240;2024-01-06T11:47:17;49.17;;;25.92;;
22851;SDS011;11592;45.460;9.240;2024-01-06T11:49:51;47.58;;;26.92;;
22851;SDS011;11592;45.460;9.240;2024-01-06T11:52:20;51.55;;;28.15;;
22851;SDS011;11592;45.460;9.240;2024-01-06T11:54:47;50.90;;;28.02;;
22851;SDS011;11592;45.460;9.240;2024-01-06T11:57:16;50.55;;;28.10;;
22851;SDS011;11592;45.460;9.240;2024-01-06T11:59:43;53.30;;;28.73;;
22851;SDS011;11592;45.460;9.240;2024-01-06T12:02:11;50.28;;;27.80;;
22851;SDS011;11592;45.460;9.240;2024-01-06T12:04:40;50.47;;;27.93;;
22851;SDS011;11592;45.460;9.240;2024-01-06T12:07:07;49.03;;;28.23;;
22851;SDS011;11592;45.460;9.240;2024-01-06T12:09:35;51.45;;;28.27;;
22851;SDS011;11592;45.460;9.240;2024-01-06T12:12:03;49.92;;;28.13;;
22851;SDS011;11592;45.460;9.240;2024-01-06T12:14:31;52.70;;;28.30;;
22851;SDS011;11592;45.460;9.240;2024-01-06T12:16:59;48.40;;;27.50;;
22851;SDS011;11592;45.460;9.240;2024-01-06T12:19:30;46.17;;;27.30;;
22851;SDS011;11592;45.460;9.240;2024-01-06T12:21:57;49.88;;;29.02;;
22851;SDS011;11592;45.460;9.240;2024-01-06T12:24:27;49.03;;;27.42;;
22851;SDS011;11592;45.460;9.240;2024-01-06T12:26:57;53.45;;;29.15;;
22851;SDS011;11592;45.460;9.240;2024-01-06T12:29:28;51.65;;;28.40;;
22851;SDS011;11592;45.460;9.240;2024-01-06T12:31:55;52.03;;;28.55;;
22851;SDS011;11592;45.460;9.240;2024-01-06T12:34:23;45.42;;;25.95;;
22851;SDS011;11592;45.460;9.240;2024-01-06T12:36:52;46.17;;;26.33;;
22851;SDS011;11592;45.460;9.240;2024-01-06T12:39:21;43.30;;;24.83;;
22851;SDS011;11592;45.460;9.240;2024-01-06T12:41:50;40.63;;;23.80;;
22851;SDS011;11592;45.460;9.240;2024-01-06T12:44:18;42.33;;;25.08;;
22851;SDS011;11592;45.460;9.240;2024-01-06T12:46:45;40.38;;;23.20;;
22851;SDS011;11592;45.460;9.240;2024-01-06T12:49:12;43.38;;;23.80;;
22851;SDS011;11592;45.460;9.240;2024-01-06T12:51:40;41.65;;;23.45;;
22851;SDS011;11592;45.460;9.240;2024-01-06T12:54:07;40.83;;;24.08;;
22851;SDS011;11592;45.460;9.240;2024-01-06T12:56:34;40.35;;;22.88;;
22851;SDS011;11592;45.460;9.240;2024-01-06T12:59:01;40.03;;;23.30;;
22851;SDS011;11592;45.460;9.240;2024-01-06T13:01:29;40.13;;;23.48;;
22851;SDS011;11592;45.460;9.240;2024-01-06T13:03:56;38.88;;;23.85;;
22851;SDS011;11592;45.460;9.240;2024-01-06T13:06:27;43.45;;;24.85;;
22851;SDS011;11592;45.460;9.240;2024-01-06T13:08:54;38.38;;;22.63;;
22851;SDS011;11592;45.460;9.240;2024-01-06T13:11:21;39.97;;;23.30;;
22851;SDS011;11592;45.460;9.240;2024-01-06T13:13:49;39.55;;;23.95;;
22851;SDS011;11592;45.460;9.240;2024-01-06T13:16:16;40.65;;;22.73;;
22851;SDS011;11592;45.460;9.240;2024-01-06T13:18:43;40.08;;;23.85;;
22851;SDS011;11592;45.460;9.240;2024-01-06T13:21:11;42.80;;;24.17;;
22851;SDS011;11592;45.460;9.240;2024-01-06T13:23:38;40.05;;;24.02;;
22851;SDS011;11592;45.460;9.240;2024-01-06T13:26:05;39.60;;;24.00;;
22851;SDS011;11592;45.460;9.240;2024-01-06T13:28:37;41.28;;;23.83;;
22851;SDS011;11592;45.460;9.240;2024-01-06T13:31:05;43.10;;;25.15;;
22851;SDS011;11592;45.460;9.240;2024-01-06T13:33:36;48.00;;;26.05;;
22851;SDS011;11592;45.460;9.240;2024-01-06T13:36:03;50.13;;;28.63;;
22851;SDS011;11592;45.460;9.240;2024-01-06T13:38:31;45.80;;;26.85;;
22851;SDS011;11592;45.460;9.240;2024-01-06T13:40:58;43.80;;;25.63;;
22851;SDS011;11592;45.460;9.240;2024-01-06T13:43:25;46.88;;;26.23;;
22851;SDS011;11592;45.460;9.240;2024-01-06T13:45:53;46.47;;;26.10;;
22851;SDS011;11592;45.460;9.240;2024-01-06T13:48:21;47.22;;;27.88;;
22851;SDS011;11592;45.460;9.240;2024-01-06T13:50:50;48.92;;;28.15;;
22851;SDS011;11592;45.460;9.240;2024-01-06T13:53:17;49.22;;;27.63;;
22851;SDS011;11592;45.460;9.240;2024-01-06T13:55:44;51.20;;;27.63;;
22851;SDS011;11592;45.460;9.240;2024-01-06T13:58:12;48.42;;;27.58;;
22851;SDS011;11592;45.460;9.240;2024-01-06T14:00:39;47.47;;;25.73;;
22851;SDS011;11592;45.460;9.240;2024-01-06T14:03:06;50.40;;;26.15;;
22851;SDS011;11592;45.460;9.240;2024-01-06T14:05:34;52.00;;;26.35;;
22851;SDS011;11592;45.460;9.240;2024-01-06T14:08:01;45.70;;;25.50;;
22851;SDS011;11592;45.460;9.240;2024-01-06T14:10:29;42.75;;;24.85;;
22851;SDS011;11592;45.460;9.240;2024-01-06T14:12:57;43.05;;;24.58;;
22851;SDS011;11592;45.460;9.240;2024-01-06T14:15:25;40.88;;;24.63;;
22851;SDS011;11592;45.460;9.240;2024-01-06T14:17:53;41.33;;;24.98;;
22851;SDS011;11592;45.460;9.240;2024-01-06T14:20:20;46.60;;;25.38;;
22851;SDS011;11592;45.460;9.240;2024-01-06T14:22:48;41.00;;;23.75;;
22851;SDS011;11592;45.460;9.240;2024-01-06T14:25:17;39.00;;;23.52;;
22851;SDS011;11592;45.460;9.240;2024-01-06T14:27:45;36.35;;;22.23;;
22851;SDS011;11592;45.460;9.240;2024-01-06T14:30:13;36.45;;;22.45;;
22851;SDS011;11592;45.460;9.240;2024-01-06T14:32:40;37.63;;;22.58;;
22851;SDS011;11592;45.460;9.240;2024-01-06T14:35:07;41.17;;;23.58;;
22851;SDS011;11592;45.460;9.240;2024-01-06T14:40:06;44.10;;;24.10;;
22851;SDS011;11592;45.460;9.240;2024-01-06T14:42:35;43.55;;;25.50;;